Minerva Grace — SVBN7 — position and weather

sailwx.info

Track history (hours):
 
Tides and Currents Weather Stations Pressure Air Temp Water Temp Dewpoint Dewpoint Depression Visibility Wind Speed Wind Dir Waves Ship Positions

Minerva Grace

Last reported at 2018-Apr-13 00:41 UTC. Time now 2018-Apr-22 18:19 UTC.
Position N 26°11' W 079°18'.
Warning: this ship's position is 9 days out of date.

Length 183 m; draft 10.1 m.

Type: Ship (hazmat cat A). MMSI: 215925000.

Date/timePositionNaut miles runAvg speedWind from/ knotsBaromVisibWave heightAir tempDewpointWater temp
2018-Apr-13 00:41N 26°11' W 079°18'212.3
2018-Apr-13 00:30N 26°10' W 079°21'612.5
2018-Apr-13 00:00N 26°05' W 079°25'1214.3
2018-Apr-12 23:08N 25°53' W 079°27'314.4
2018-Apr-12 22:57N 25°51' W 079°28'714.3
2018-Apr-12 22:30N 25°44' W 079°29'714.2
2018-Apr-12 22:00N 25°37' W 079°30'  
2018-Apr-09 23:30N 28°35' W 093°27'712.8
2018-Apr-09 22:59N 28°38' W 093°34'612.7
2018-Apr-09 22:31N 28°42' W 093°39'612.7
2018-Apr-09 22:00N 28°46' W 093°45'5711.0
2018-Apr-09 16:51N 29°18' W 094°38'411.0
2018-Apr-09 16:29N 29°21' W 094°42'5 8.6
2018-Apr-09 15:57N 29°19' W 094°47'2 3.6
2018-Apr-09 15:30N 29°19' W 094°48'0 0.0
2018-Apr-07 11:36N 29°19' W 094°48'2 1.5
2018-Apr-07 10:15N 29°20' W 094°47'410.0
2018-Apr-07 09:53N 29°21' W 094°42'410.9
2018-Apr-07 09:30N 29°19' W 094°38'4 8.1
2018-Apr-07 09:00N 29°19' W 094°34'2 0.7
2018-Apr-07 05:34N 29°20' W 094°31'0 0.0
2018-Apr-07 01:52N 29°20' W 094°31'1 3.8
2018-Apr-07 01:30N 29°20' W 094°33'3 6.3
2018-Apr-07 01:00N 29°17' W 094°34'4 7.6
2018-Apr-07 00:29N 29°14' W 094°31'5 8.2
2018-Apr-06 23:55N 29°11' W 094°26'4 9.1
2018-Apr-06 23:30N 29°08' W 094°25'610.2
2018-Apr-06 22:52N 29°01' W 094°25'610.3
2018-Apr-06 22:20N 28°56' W 094°25'12 9.2
2018-Apr-06 21:00N 28°45' W 094°31'7 0.3
2018-Apr-05 21:07N 28°41' W 094°37'0 3.7
2018-Apr-05 21:00N 28°40' W 094°37'1010.5
2018-Apr-05 20:02N 28°38' W 094°26'1310.5
2018-Apr-05 18:46N 28°36' W 094°11'  
Track history (hours):
 
Tides and Currents Weather Stations Pressure Air Temp Water Temp Dewpoint Dewpoint Depression Visibility Wind Speed Wind Dir Waves Ship Positions

Minerva Grace

Last reported at 2018-Apr-13 00:41 UTC. Time now 2018-Apr-22 18:19 UTC.
Position N 26°11' W 079°18'.
Warning: this ship's position is 9 days out of date.

Length 183 m; draft 10.1 m.

Type: Ship (hazmat cat A). MMSI: 215925000.

Date/timePositionNaut miles runAvg speedWind from/ knotsBaromVisibWave heightAir tempDewpointWater temp
2018-Apr-13 00:41N 26°11' W 079°18'212.3
2018-Apr-13 00:30N 26°10' W 079°21'612.5
2018-Apr-13 00:00N 26°05' W 079°25'1214.3
2018-Apr-12 23:08N 25°53' W 079°27'314.4
2018-Apr-12 22:57N 25°51' W 079°28'714.3
2018-Apr-12 22:30N 25°44' W 079°29'714.2
2018-Apr-12 22:00N 25°37' W 079°30'  
2018-Apr-09 23:30N 28°35' W 093°27'712.8
2018-Apr-09 22:59N 28°38' W 093°34'612.7
2018-Apr-09 22:31N 28°42' W 093°39'612.7
2018-Apr-09 22:00N 28°46' W 093°45'5711.0
2018-Apr-09 16:51N 29°18' W 094°38'411.0
2018-Apr-09 16:29N 29°21' W 094°42'5 8.6
2018-Apr-09 15:57N 29°19' W 094°47'2 3.6
2018-Apr-09 15:30N 29°19' W 094°48'0 0.0
2018-Apr-07 11:36N 29°19' W 094°48'2 1.5
2018-Apr-07 10:15N 29°20' W 094°47'410.0
2018-Apr-07 09:53N 29°21' W 094°42'410.9
2018-Apr-07 09:30N 29°19' W 094°38'4 8.1
2018-Apr-07 09:00N 29°19' W 094°34'2 0.7
2018-Apr-07 05:34N 29°20' W 094°31'0 0.0
2018-Apr-07 01:52N 29°20' W 094°31'1 3.8
2018-Apr-07 01:30N 29°20' W 094°33'3 6.3
2018-Apr-07 01:00N 29°17' W 094°34'4 7.6
2018-Apr-07 00:29N 29°14' W 094°31'5 8.2
2018-Apr-06 23:55N 29°11' W 094°26'4 9.1
2018-Apr-06 23:30N 29°08' W 094°25'610.2
2018-Apr-06 22:52N 29°01' W 094°25'610.3
2018-Apr-06 22:20N 28°56' W 094°25'12 9.2
2018-Apr-06 21:00N 28°45' W 094°31'7 0.3
2018-Apr-05 21:07N 28°41' W 094°37'0 3.7
2018-Apr-05 21:00N 28°40' W 094°37'1010.5
2018-Apr-05 20:02N 28°38' W 094°26'1310.5
2018-Apr-05 18:46N 28°36' W 094°11'  

Dump ship's entire track history